createdAt,value
2018-05-31T00:02:15.374Z,82.13
2018-05-31T00:04:42.886Z,77.57
2018-05-31T00:07:10.397Z,75.20
2018-05-31T00:09:37.925Z,74.60
2018-05-31T00:12:05.443Z,73.87
2018-05-31T00:14:32.985Z,87.60
2018-05-31T00:17:00.510Z,85.70
2018-05-31T00:19:28.067Z,82.10
2018-05-31T00:21:55.577Z,81.10
2018-05-31T00:24:23.087Z,78.57
2018-05-31T00:26:50.618Z,76.93
2018-05-31T00:29:18.182Z,89.97
2018-05-31T00:31:45.710Z,90.80
2018-05-31T00:34:13.218Z,89.30
2018-05-31T00:36:40.762Z,92.70
2018-05-31T00:39:08.258Z,93.47
2018-05-31T00:41:35.786Z,97.67
2018-05-31T00:44:03.354Z,91.37
2018-05-31T00:46:30.875Z,102.20
2018-05-31T00:48:58.403Z,98.70
2018-05-31T00:51:25.960Z,100.93
2018-05-31T00:53:53.461Z,99.00
2018-05-31T00:56:20.987Z,97.87
2018-05-31T00:58:48.515Z,97.83
2018-05-31T01:01:16.262Z,91.73
2018-05-31T01:03:43.777Z,91.83
2018-05-31T01:06:11.298Z,87.20
2018-05-31T01:08:38.982Z,88.37
2018-05-31T01:11:06.493Z,78.80
2018-05-31T01:13:34.010Z,97.47
2018-05-31T01:16:01.568Z,111.63
2018-05-31T01:18:29.090Z,132.60
2018-05-31T01:20:56.646Z,122.17
2018-05-31T01:23:24.169Z,117.13
2018-05-31T01:25:51.706Z,118.97
2018-05-31T01:28:19.231Z,105.87
2018-05-31T01:30:46.807Z,107.27
2018-05-31T01:33:14.347Z,108.67
2018-05-31T01:35:41.869Z,105.43
2018-05-31T01:38:21.309Z,135.93
2018-05-31T01:40:48.821Z,123.80
2018-05-31T01:43:16.792Z,102.50
2018-05-31T01:45:44.312Z,128.27
2018-05-31T01:48:11.830Z,115.10
2018-05-31T01:50:39.376Z,123.10
2018-05-31T01:53:06.890Z,122.03
2018-05-31T01:55:34.545Z,111.20
2018-05-31T01:58:02.074Z,108.40
2018-05-31T02:00:29.585Z,127.50
2018-05-31T02:02:57.276Z,134.63
2018-05-31T02:05:24.806Z,136.27
2018-05-31T02:07:52.403Z,132.53
2018-05-31T02:10:20.262Z,134.27
2018-05-31T02:12:47.783Z,146.57
2018-05-31T02:15:16.247Z,126.93
2018-05-31T02:17:44.261Z,143.17
2018-05-31T02:20:11.784Z,140.30
2018-05-31T02:22:40.401Z,132.17
2018-05-31T02:25:07.943Z,113.53
2018-05-31T02:27:35.471Z,116.60
2018-05-31T02:30:03.022Z,111.67
2018-05-31T02:32:30.603Z,129.63
2018-05-31T02:34:58.131Z,125.20
2018-05-31T02:37:25.685Z,141.60
2018-05-31T02:39:53.239Z,145.43
2018-05-31T02:42:21.226Z,147.03
2018-05-31T02:44:48.754Z,160.23
2018-05-31T02:47:16.290Z,161.20
2018-05-31T02:49:43.851Z,171.27
2018-05-31T02:52:11.393Z,160.90
2018-05-31T02:54:39.355Z,169.87
2018-05-31T02:57:06.896Z,173.07
2018-05-31T02:59:34.414Z,185.40
2018-05-31T03:02:01.970Z,179.77
2018-05-31T03:04:29.526Z,172.37
2018-05-31T03:06:57.552Z,176.73
2018-05-31T03:09:25.091Z,167.03
2018-05-31T03:11:52.617Z,170.90
2018-05-31T03:14:20.586Z,173.43
2018-05-31T03:16:48.123Z,168.00
2018-05-31T03:19:15.653Z,169.33
2018-05-31T03:21:43.223Z,169.33
2018-05-31T03:24:11.055Z,173.73
2018-05-31T03:26:38.578Z,178.03
2018-05-31T03:29:06.105Z,165.17
2018-05-31T03:31:33.652Z,160.90
2018-05-31T03:34:01.194Z,172.37
2018-05-31T03:36:28.720Z,174.50
2018-05-31T03:38:56.436Z,176.67
2018-05-31T03:41:23.962Z,169.23
2018-05-31T03:43:51.492Z,164.57
2018-05-31T03:46:19.050Z,178.03
2018-05-31T03:48:46.579Z,171.87
2018-05-31T03:51:14.162Z,168.37
2018-05-31T03:53:41.998Z,158.77
2018-05-31T03:56:09.507Z,168.30
2018-05-31T03:58:37.213Z,158.60
2018-05-31T04:01:04.733Z,170.00
2018-05-31T04:03:32.254Z,165.40
2018-05-31T04:05:59.820Z,151.80
2018-05-31T04:08:27.367Z,162.67
2018-05-31T04:10:55.296Z,157.57
2018-05-31T04:13:22.843Z,161.97
2018-05-31T04:15:50.377Z,150.60
2018-05-31T04:18:17.931Z,145.10
2018-05-31T04:20:45.468Z,148.60
2018-05-31T04:23:13.017Z,145.70
2018-05-31T04:25:40.545Z,148.60
2018-05-31T04:28:08.202Z,141.13
2018-05-31T04:30:35.718Z,138.30
2018-05-31T04:33:03.226Z,138.80
2018-05-31T04:35:30.762Z,140.53
2018-05-31T04:37:58.287Z,135.83
2018-05-31T04:40:25.857Z,134.93
2018-05-31T04:42:53.383Z,132.37
2018-05-31T04:45:20.899Z,127.30
2018-05-31T04:47:48.451Z,125.93
2018-05-31T04:50:15.974Z,128.17
2018-05-31T04:52:43.544Z,125.13
2018-05-31T04:55:11.055Z,122.23
2018-05-31T04:57:38.596Z,124.60
2018-05-31T05:00:06.105Z,123.87
2018-05-31T05:02:33.650Z,117.73
2018-05-31T05:05:01.175Z,113.13
2018-05-31T05:07:28.717Z,109.17
2018-05-31T05:09:56.638Z,110.37
2018-05-31T05:12:24.154Z,104.57
2018-05-31T05:14:51.668Z,91.87
2018-05-31T05:17:19.202Z,104.53
2018-05-31T05:19:46.752Z,84.30
2018-05-31T05:22:14.267Z,83.60
2018-05-31T05:24:42.285Z,103.20
2018-05-31T05:27:09.823Z,86.93
2018-05-31T05:29:37.356Z,92.10
2018-05-31T05:32:04.886Z,92.53
2018-05-31T05:34:32.408Z,90.37
2018-05-31T05:36:59.976Z,94.80
2018-05-31T05:39:27.486Z,92.40
2018-05-31T05:41:55.009Z,92.90
2018-05-31T05:44:22.595Z,92.27
2018-05-31T05:46:50.114Z,88.17
2018-05-31T05:49:17.627Z,90.40
2018-05-31T05:51:45.168Z,81.53
2018-05-31T05:54:12.776Z,83.93
2018-05-31T05:56:40.355Z,82.10
2018-05-31T05:59:07.870Z,74.53
2018-05-31T06:01:35.374Z,77.60
2018-05-31T06:04:02.918Z,76.47
2018-05-31T06:06:30.434Z,73.60
2018-05-31T06:08:57.974Z,77.13
2018-05-31T06:11:25.526Z,70.80
2018-05-31T06:13:53.060Z,68.82
2018-05-31T06:16:20.623Z,73.40
2018-05-31T06:18:48.131Z,68.43
2018-05-31T06:21:15.675Z,66.47
2018-05-31T06:23:43.648Z,59.10
2018-05-31T06:26:11.167Z,67.03
2018-05-31T06:28:38.686Z,62.90
2018-05-31T06:31:06.322Z,60.42
2018-05-31T06:33:33.889Z,56.92
2018-05-31T06:36:01.377Z,65.05
2018-05-31T06:38:28.902Z,58.03
2018-05-31T06:40:56.438Z,59.88
2018-05-31T06:43:23.989Z,56.47
2018-05-31T06:45:51.501Z,58.25
2018-05-31T06:48:19.031Z,57.28
2018-05-31T06:50:47.039Z,59.97
2018-05-31T06:53:14.539Z,61.15
2018-05-31T06:55:42.188Z,58.63
2018-05-31T06:58:09.703Z,65.95
2018-05-31T07:00:37.207Z,61.25
2018-05-31T07:03:04.874Z,63.08
2018-05-31T07:05:32.374Z,58.70
2018-05-31T07:07:59.878Z,63.80
2018-05-31T07:10:27.412Z,64.63
2018-05-31T07:12:55.318Z,61.63
2018-05-31T07:15:22.828Z,66.17
2018-05-31T07:17:50.347Z,76.33
2018-05-31T07:20:18.224Z,71.93
2018-05-31T07:22:45.725Z,79.27
2018-05-31T07:25:13.229Z,72.70
2018-05-31T07:27:40.755Z,79.50
2018-05-31T07:30:08.302Z,73.20
2018-05-31T07:32:35.811Z,79.80
2018-05-31T07:35:03.324Z,67.13
2018-05-31T07:37:30.854Z,66.40
2018-05-31T07:39:58.395Z,73.43
2018-05-31T07:42:26.096Z,63.87
2018-05-31T07:44:53.601Z,68.10
2018-05-31T07:47:21.130Z,69.00
2018-05-31T07:49:48.821Z,69.17
2018-05-31T07:52:16.327Z,67.93
2018-05-31T07:54:43.835Z,61.40
2018-05-31T07:57:11.362Z,68.20
2018-05-31T07:59:39.307Z,63.13
2018-05-31T08:02:06.814Z,58.03
2018-05-31T08:04:34.319Z,67.47
2018-05-31T08:07:02.196Z,61.47
2018-05-31T08:09:29.706Z,63.20
2018-05-31T08:11:57.388Z,61.17
2018-05-31T08:14:24.899Z,61.03
2018-05-31T08:16:52.412Z,59.07
2018-05-31T08:19:20.316Z,59.23
2018-05-31T08:21:47.835Z,55.60
2018-05-31T08:24:15.335Z,56.50
2018-05-31T08:26:42.963Z,60.43
2018-05-31T08:29:10.468Z,55.40
2018-05-31T08:31:38.051Z,59.20
2018-05-31T08:34:05.527Z,52.43
2018-05-31T08:36:33.041Z,51.10
2018-05-31T08:39:00.614Z,60.43
2018-05-31T08:41:28.126Z,60.47
2018-05-31T08:43:55.638Z,54.80
2018-05-31T08:46:23.610Z,57.00
2018-05-31T08:48:51.123Z,56.33
2018-05-31T08:51:18.632Z,55.77
2018-05-31T08:53:47.187Z,62.50
2018-05-31T08:56:14.692Z,58.50
2018-05-31T08:58:42.412Z,54.30
2018-05-31T09:01:09.902Z,63.50
2018-05-31T09:03:37.400Z,56.80
2018-05-31T09:06:04.928Z,52.87
2018-05-31T09:08:32.431Z,56.47
2018-05-31T09:10:59.960Z,54.90
2018-05-31T09:14:07.395Z,53.20
2018-05-31T09:16:34.924Z,50.27
2018-05-31T09:19:02.424Z,53.23
2018-05-31T09:21:29.946Z,58.73
2018-05-31T09:23:57.483Z,57.20
2018-05-31T09:26:24.996Z,56.63
2018-05-31T09:28:52.721Z,56.60
2018-05-31T09:31:20.228Z,51.60
2018-05-31T09:33:47.750Z,60.67
2018-05-31T09:36:15.752Z,63.50
2018-05-31T09:38:43.250Z,55.63
2018-05-31T09:41:10.799Z,50.83
2018-05-31T09:43:38.322Z,46.20
2018-05-31T09:46:05.841Z,50.90
2018-05-31T09:48:33.387Z,53.33
2018-05-31T09:51:00.899Z,54.13
2018-05-31T09:53:28.399Z,50.40
2018-05-31T09:55:56.439Z,50.10
2018-05-31T09:58:23.939Z,45.30
2018-05-31T10:00:51.442Z,52.03
2018-05-31T10:03:19.155Z,42.27
2018-05-31T10:05:46.664Z,50.53
2018-05-31T10:08:14.164Z,49.03
2018-05-31T10:10:41.866Z,48.70
2018-05-31T10:13:09.362Z,47.10
2018-05-31T10:15:36.875Z,43.20
2018-05-31T10:18:04.447Z,54.10
2018-05-31T10:20:31.954Z,51.40
2018-05-31T10:22:59.459Z,52.35
2018-05-31T10:25:26.980Z,46.90
2018-05-31T10:27:54.511Z,51.03
2018-05-31T10:30:22.014Z,51.72
2018-05-31T10:32:49.542Z,49.77
2018-05-31T10:35:17.048Z,52.43
2018-05-31T10:37:44.579Z,51.40
2018-05-31T10:40:12.112Z,49.67
2018-05-31T10:42:39.624Z,41.60
2018-05-31T10:45:07.818Z,47.27
2018-05-31T10:47:35.327Z,46.80
2018-05-31T10:50:02.860Z,46.03
2018-05-31T10:52:30.358Z,33.60
2018-05-31T10:54:58.087Z,38.27
2018-05-31T10:57:25.591Z,33.53
2018-05-31T10:59:53.095Z,28.30
2018-05-31T11:02:20.631Z,30.10
2018-05-31T11:04:48.149Z,31.60
2018-05-31T11:07:16.061Z,31.90
2018-05-31T11:09:43.558Z,29.50
2018-05-31T11:12:11.058Z,36.67
2018-05-31T11:14:38.578Z,27.08
2018-05-31T11:17:06.103Z,26.20
2018-05-31T11:19:33.603Z,25.80
2018-05-31T11:22:01.162Z,28.55
2018-05-31T11:24:28.666Z,23.55
2018-05-31T11:26:56.176Z,23.87
2018-05-31T11:29:23.702Z,24.33
2018-05-31T11:31:51.586Z,31.05
2018-05-31T11:34:19.090Z,27.80
2018-05-31T11:36:46.602Z,27.70
2018-05-31T11:39:14.143Z,24.10
2018-05-31T11:41:41.661Z,23.23
2018-05-31T11:44:09.357Z,22.33
2018-05-31T11:46:36.855Z,21.50
2018-05-31T11:49:04.360Z,22.60
2018-05-31T11:51:31.899Z,19.65
2018-05-31T11:53:59.399Z,22.62
2018-05-31T11:56:26.974Z,19.73
2018-05-31T11:58:54.476Z,19.58
2018-05-31T12:01:21.988Z,21.62
2018-05-31T12:03:49.554Z,22.52
2018-05-31T12:06:17.424Z,26.23
2018-05-31T12:08:44.927Z,24.83
2018-05-31T12:11:12.425Z,23.92
2018-05-31T12:13:39.988Z,20.02
2018-05-31T12:16:07.510Z,23.07
2018-05-31T12:18:35.024Z,25.95
2018-05-31T12:21:02.571Z,21.27
2018-05-31T12:23:30.090Z,19.87
2018-05-31T12:25:57.591Z,20.50
2018-05-31T12:28:25.114Z,23.13
2018-05-31T12:30:52.677Z,24.13
2018-05-31T12:33:20.185Z,21.07
2018-05-31T12:35:47.690Z,19.90
2018-05-31T12:38:15.218Z,27.17
2018-05-31T12:40:42.731Z,22.00
2018-05-31T12:43:10.300Z,26.07
2018-05-31T12:45:37.801Z,26.10
2018-05-31T12:48:05.302Z,24.20
2018-05-31T12:50:32.830Z,24.93
2018-05-31T12:53:00.335Z,24.20
2018-05-31T12:55:28.062Z,27.77
2018-05-31T12:57:55.568Z,25.23
2018-05-31T13:00:23.080Z,22.10
2018-05-31T13:02:50.603Z,29.40
2018-05-31T13:05:18.107Z,25.87
2018-05-31T13:07:45.836Z,25.63
2018-05-31T13:10:13.343Z,22.60
2018-05-31T13:12:40.846Z,27.27
2018-05-31T13:15:08.370Z,25.67
2018-05-31T13:17:35.938Z,23.00
2018-05-31T13:20:03.443Z,25.60
2018-05-31T13:22:30.951Z,22.93
2018-05-31T13:24:58.478Z,25.87
2018-05-31T13:27:26.147Z,32.17
2018-05-31T13:29:53.677Z,25.80
2018-05-31T13:32:21.174Z,35.40
2018-05-31T13:34:48.687Z,31.10
2018-05-31T13:37:16.234Z,35.43
2018-05-31T13:39:43.736Z,39.40
2018-05-31T13:42:11.264Z,33.97
2018-05-31T13:44:38.766Z,40.37
2018-05-31T13:47:06.289Z,34.70
2018-05-31T13:49:33.791Z,37.63
2018-05-31T13:52:01.381Z,40.93
2018-05-31T13:54:28.891Z,40.63
2018-05-31T13:56:56.400Z,37.50
2018-05-31T13:59:23.919Z,39.70
2018-05-31T14:01:51.414Z,40.07
2018-05-31T14:04:18.941Z,32.57
2018-05-31T14:06:46.441Z,30.87
2018-05-31T14:09:13.971Z,33.50
2018-05-31T14:11:41.711Z,28.80
2018-05-31T14:14:09.245Z,35.57
2018-05-31T14:16:36.767Z,34.63
2018-05-31T14:19:04.285Z,35.97
2018-05-31T14:21:32.006Z,30.73
2018-05-31T14:23:59.515Z,30.90
2018-05-31T14:26:27.032Z,26.70
2018-05-31T14:28:54.566Z,24.90
2018-05-31T14:31:22.107Z,24.90
2018-05-31T14:33:49.645Z,26.50
2018-05-31T14:36:17.179Z,23.70
2018-05-31T14:38:44.708Z,28.30
2018-05-31T14:41:12.223Z,25.00
2018-05-31T14:43:39.749Z,20.73
2018-05-31T14:46:07.255Z,23.30
2018-05-31T14:48:34.803Z,19.07
2018-05-31T14:51:03.077Z,18.50
2018-05-31T14:53:30.588Z,22.90
2018-05-31T14:55:58.126Z,22.37
2018-05-31T14:58:25.648Z,24.33
2018-05-31T15:00:53.183Z,21.07
2018-05-31T15:03:20.826Z,21.27
2018-05-31T15:05:48.355Z,20.13
2018-05-31T15:08:15.953Z,21.20
2018-05-31T15:10:43.485Z,20.10
2018-05-31T15:13:10.992Z,18.70
2018-05-31T15:15:38.641Z,20.97
2018-05-31T15:18:06.160Z,23.80
2018-05-31T15:20:33.671Z,33.03
2018-05-31T15:23:01.341Z,32.10
2018-05-31T15:25:28.863Z,35.17
2018-05-31T15:27:56.387Z,38.83
2018-05-31T15:30:23.994Z,33.60
2018-05-31T15:32:52.436Z,37.80
2018-05-31T15:35:19.947Z,36.30
2018-05-31T15:37:47.481Z,32.53
2018-05-31T15:40:15.427Z,34.03
2018-05-31T15:42:42.940Z,36.03
2018-05-31T15:45:10.446Z,31.90
2018-05-31T15:47:37.984Z,30.20
2018-05-31T15:50:05.502Z,32.27
2018-05-31T15:52:33.279Z,32.70
2018-05-31T15:55:00.795Z,34.07
2018-05-31T15:57:28.304Z,30.60
2018-05-31T15:59:55.846Z,31.93
2018-05-31T16:02:23.863Z,37.17
2018-05-31T16:04:51.391Z,30.13
2018-05-31T16:07:18.914Z,37.37
2018-05-31T16:09:46.418Z,40.80
2018-05-31T16:12:13.947Z,44.80
2018-05-31T16:14:41.600Z,41.10
2018-05-31T16:17:09.245Z,48.80
2018-05-31T16:19:36.759Z,55.03
2018-05-31T16:22:04.266Z,57.70
2018-05-31T16:24:31.806Z,58.67
2018-05-31T16:26:59.458Z,66.20
2018-05-31T16:29:26.966Z,51.47
2018-05-31T16:31:54.536Z,54.87
2018-05-31T16:34:22.058Z,57.10
2018-05-31T16:36:49.592Z,67.70
2018-05-31T16:39:17.139Z,57.77
2018-05-31T16:41:44.688Z,78.00
2018-05-31T16:44:12.385Z,80.00
2018-05-31T16:46:40.215Z,73.83
2018-05-31T16:49:07.775Z,80.13
2018-05-31T16:51:35.306Z,86.50
2018-05-31T16:54:02.812Z,80.93
2018-05-31T16:56:30.354Z,95.30
2018-05-31T16:58:57.858Z,90.30
2018-05-31T17:01:25.819Z,101.80
2018-05-31T17:03:53.338Z,98.43
2018-05-31T17:06:20.939Z,102.93
2018-05-31T17:08:48.475Z,116.83
2018-05-31T17:11:15.995Z,122.40
2018-05-31T17:13:43.695Z,114.23
2018-05-31T17:16:11.255Z,108.07
2018-05-31T17:18:38.763Z,111.87
2018-05-31T17:21:06.307Z,107.37
2018-05-31T17:23:33.814Z,114.10
2018-05-31T17:26:01.551Z,114.80
2018-05-31T17:28:29.076Z,105.60
2018-05-31T17:30:56.605Z,103.40
2018-05-31T17:33:24.160Z,92.77
2018-05-31T17:35:51.670Z,93.87
2018-05-31T17:38:19.175Z,83.70
2018-05-31T17:40:46.703Z,89.97
2018-05-31T17:43:14.224Z,82.37
2018-05-31T17:45:41.883Z,80.73
2018-05-31T17:48:09.391Z,76.80
2018-05-31T17:50:36.889Z,67.67
2018-05-31T17:53:04.411Z,65.20
2018-05-31T17:55:32.601Z,60.63
2018-05-31T17:58:00.135Z,60.37
2018-05-31T18:00:27.634Z,55.63
2018-05-31T18:02:55.163Z,50.57
2018-05-31T18:05:22.679Z,55.50
2018-05-31T18:07:50.299Z,52.63
2018-05-31T18:10:18.193Z,52.93
2018-05-31T18:12:45.747Z,47.37
2018-05-31T18:15:13.255Z,45.47
2018-05-31T18:17:40.774Z,45.87
2018-05-31T18:20:08.340Z,48.70
2018-05-31T18:22:35.834Z,44.97
2018-05-31T18:25:03.827Z,47.23
2018-05-31T18:27:31.748Z,45.97
2018-05-31T18:29:59.305Z,39.90
2018-05-31T18:32:26.867Z,46.60
2018-05-31T18:34:54.528Z,40.30
2018-05-31T18:37:22.053Z,43.60
2018-05-31T18:39:49.572Z,48.37
2018-05-31T18:42:17.107Z,45.40
2018-05-31T18:44:44.616Z,53.37
2018-05-31T18:47:12.176Z,51.47
2018-05-31T18:49:39.685Z,47.57
2018-05-31T18:52:07.195Z,56.67
2018-05-31T18:54:34.748Z,51.63
2018-05-31T18:57:02.284Z,50.93
2018-05-31T18:59:30.297Z,53.50
2018-05-31T19:01:57.795Z,59.80
2018-05-31T19:04:25.303Z,57.93
2018-05-31T19:06:52.843Z,60.17
2018-05-31T19:12:15.700Z,61.83
2018-05-31T19:14:43.208Z,58.10
2018-05-31T19:17:10.754Z,61.57
2018-05-31T19:19:43.904Z,62.67
2018-05-31T19:22:11.415Z,63.70
2018-05-31T19:24:44.627Z,62.30
2018-05-31T19:27:12.131Z,61.77
2018-05-31T19:29:39.812Z,64.23
2018-05-31T19:32:07.328Z,66.30
2018-05-31T19:34:35.335Z,59.70
2018-05-31T19:37:09.488Z,70.63
2018-05-31T19:39:37.325Z,73.70
2018-05-31T19:42:04.868Z,83.40
2018-05-31T19:44:39.324Z,69.70
2018-05-31T19:47:06.835Z,62.13
2018-05-31T19:49:34.389Z,74.27
2018-05-31T19:52:07.448Z,71.10
2018-05-31T19:54:34.978Z,85.37
2018-05-31T19:57:02.737Z,71.30
2018-05-31T19:59:35.923Z,68.50
2018-05-31T20:02:09.031Z,66.53
2018-05-31T20:04:36.540Z,65.67
2018-05-31T20:07:04.065Z,70.50
2018-05-31T20:09:31.626Z,83.40
2018-05-31T20:11:59.129Z,68.77
2018-05-31T20:14:26.706Z,71.80
2018-05-31T20:16:54.231Z,73.07
2018-05-31T20:19:21.740Z,75.70
2018-05-31T20:21:49.261Z,66.13
2018-05-31T20:24:16.804Z,75.13
2018-05-31T20:26:44.351Z,185.50
2018-05-31T20:29:11.863Z,103.97
2018-05-31T20:31:39.814Z,153.83
2018-05-31T20:34:07.317Z,71.00
2018-05-31T20:36:34.836Z,62.93
2018-05-31T20:39:02.472Z,63.23
2018-05-31T20:41:29.979Z,64.77
2018-05-31T20:43:57.487Z,64.60
2018-05-31T20:46:25.019Z,66.43
2018-05-31T20:48:52.535Z,69.63
2018-05-31T20:51:20.202Z,69.50
2018-05-31T20:53:47.728Z,71.80
2018-05-31T20:56:15.247Z,70.80
2018-05-31T20:58:42.821Z,73.13
2018-05-31T21:01:10.340Z,70.47
2018-05-31T21:03:37.864Z,63.83
2018-05-31T21:06:05.843Z,62.87
2018-05-31T21:08:33.347Z,62.57
2018-05-31T21:11:00.854Z,85.13
2018-05-31T21:13:28.396Z,65.37
2018-05-31T21:15:55.935Z,68.83
2018-05-31T21:18:23.506Z,68.47
2018-05-31T21:20:51.014Z,61.83
2018-05-31T21:23:18.528Z,62.00
2018-05-31T21:25:46.072Z,58.67
2018-05-31T21:28:13.583Z,66.60
2018-05-31T21:30:41.119Z,61.90
2018-05-31T21:33:08.635Z,70.63
2018-05-31T21:35:36.203Z,65.40
2018-05-31T21:38:41.775Z,73.43
2018-05-31T21:41:09.303Z,61.03
2018-05-31T21:43:36.804Z,59.93
2018-05-31T21:46:04.804Z,55.50
2018-05-31T21:48:32.316Z,61.23
2018-05-31T21:50:59.818Z,54.77
2018-05-31T21:53:27.338Z,57.77
2018-05-31T21:55:54.875Z,57.97
2018-05-31T21:58:22.367Z,62.27
2018-05-31T22:00:55.839Z,57.47
2018-05-31T22:03:23.344Z,63.67
2018-05-31T22:05:51.029Z,56.10
2018-05-31T22:08:18.534Z,54.00
2018-05-31T22:10:46.055Z,65.03
2018-05-31T22:13:13.738Z,105.33
2018-05-31T22:15:41.251Z,78.13
2018-05-31T22:18:08.757Z,85.00
2018-05-31T22:20:36.309Z,96.57
2018-05-31T22:23:03.814Z,119.23
2018-05-31T22:25:31.326Z,317.90
2018-05-31T22:27:58.880Z,299.00
2018-05-31T22:30:26.391Z,601.80
2018-05-31T22:32:53.945Z,394.97
2018-05-31T22:35:21.475Z,281.97
2018-05-31T22:37:48.995Z,541.97
2018-05-31T22:40:16.528Z,474.07
2018-05-31T22:42:44.063Z,269.97
2018-05-31T22:45:11.576Z,208.90
2018-05-31T22:47:39.110Z,400.13
2018-05-31T22:50:06.644Z,238.73
2018-05-31T22:52:34.171Z,248.00
2018-05-31T22:55:01.707Z,177.90
2018-05-31T22:57:29.251Z,108.97
2018-05-31T22:59:57.240Z,101.90
2018-05-31T23:02:24.749Z,103.43
2018-05-31T23:04:52.257Z,95.07
2018-05-31T23:07:20.147Z,86.50
2018-05-31T23:09:47.667Z,89.60
2018-05-31T23:12:16.130Z,97.77
2018-05-31T23:14:43.660Z,95.73
2018-05-31T23:17:11.170Z,100.83
2018-05-31T23:19:38.693Z,89.80
2018-05-31T23:22:06.198Z,102.80
2018-05-31T23:24:34.083Z,87.37
2018-05-31T23:27:01.587Z,90.57
2018-05-31T23:29:29.104Z,92.60
2018-05-31T23:31:56.739Z,89.87
2018-05-31T23:34:24.242Z,86.10
2018-05-31T23:36:51.744Z,85.40
2018-05-31T23:39:19.316Z,85.23
2018-05-31T23:41:46.846Z,94.67
2018-05-31T23:44:14.384Z,99.20
2018-05-31T23:46:41.895Z,85.73
2018-05-31T23:49:09.435Z,85.67
2018-05-31T23:51:36.944Z,87.97
2018-05-31T23:54:04.471Z,96.73
2018-05-31T23:56:32.032Z,106.80
2018-05-31T23:58:59.540Z,120.17
